createdAt,value
2023-04-30T00:00:38.161Z,12.46
2023-04-30T00:03:06.409Z,12.43
2023-04-30T00:05:34.744Z,12.47
2023-04-30T00:08:02.851Z,12.40
2023-04-30T00:10:31.131Z,12.07
2023-04-30T00:12:59.833Z,12.45
2023-04-30T00:15:29.410Z,12.42
2023-04-30T00:17:57.641Z,12.20
2023-04-30T00:20:25.932Z,12.37
2023-04-30T00:22:54.139Z,12.31
2023-04-30T00:25:24.659Z,12.39
2023-04-30T00:27:52.832Z,12.34
2023-04-30T00:30:20.999Z,12.46
2023-04-30T00:32:50.565Z,12.40
2023-04-30T00:35:18.856Z,12.31
2023-04-30T00:37:47.812Z,12.45
2023-04-30T00:40:16.802Z,12.50
2023-04-30T00:42:45.024Z,12.42
2023-04-30T00:45:13.296Z,12.32
2023-04-30T00:47:42.249Z,12.30
2023-04-30T00:50:16.028Z,12.41
2023-04-30T00:52:44.748Z,12.36
2023-04-30T00:55:13.731Z,12.22
2023-04-30T00:57:42.175Z,12.34
2023-04-30T01:00:11.754Z,12.25
2023-04-30T01:02:40.032Z,12.29
2023-04-30T01:05:09.306Z,12.21
2023-04-30T01:07:44.878Z,12.20
2023-04-30T01:10:14.068Z,12.02
2023-04-30T01:12:49.299Z,11.95
2023-04-30T01:15:34.710Z,12.22
2023-04-30T01:18:09.351Z,12.00
2023-04-30T01:20:45.168Z,12.06
2023-04-30T01:23:28.888Z,11.94
2023-04-30T01:26:12.292Z,11.98
2023-04-30T01:28:45.037Z,11.61
2023-04-30T01:31:14.999Z,11.92
2023-04-30T01:33:43.463Z,11.96
2023-04-30T01:36:36.928Z,11.92
2023-04-30T01:39:21.271Z,11.58
2023-04-30T01:41:59.267Z,11.88
2023-04-30T01:44:55.464Z,11.85
2023-04-30T01:47:35.187Z,11.80
2023-04-30T01:50:25.644Z,9.53
2023-04-30T01:52:55.115Z,11.80
2023-04-30T01:55:28.829Z,11.75
2023-04-30T01:57:59.758Z,11.00
2023-04-30T02:00:30.801Z,11.58
2023-04-30T02:02:59.521Z,11.64
2023-04-30T02:05:27.832Z,11.46
2023-04-30T02:07:56.492Z,11.51
2023-04-30T02:10:26.591Z,11.47
2023-04-30T02:12:55.246Z,11.46
2023-04-30T02:15:23.493Z,10.98
2023-04-30T02:17:53.205Z,11.46
2023-04-30T02:20:21.632Z,11.44
2023-04-30T02:22:49.815Z,10.46
2023-04-30T02:25:18.276Z,11.38
2023-04-30T02:27:46.409Z,11.25
2023-04-30T02:30:14.543Z,11.32
2023-04-30T02:32:42.869Z,11.33
2023-04-30T02:35:12.520Z,11.31
2023-04-30T02:37:40.664Z,11.19
2023-04-30T02:40:10.691Z,10.98
2023-04-30T02:42:38.872Z,10.90
2023-04-30T02:45:08.245Z,10.85
2023-04-30T02:47:36.576Z,11.12
2023-04-30T02:50:05.587Z,11.02
2023-04-30T02:52:35.192Z,10.92
2023-04-30T02:55:04.047Z,10.99
2023-04-30T02:57:32.215Z,10.71
2023-04-30T03:00:00.609Z,10.94
2023-04-30T03:02:28.822Z,10.99
2023-04-30T03:04:56.993Z,10.87
2023-04-30T03:07:25.192Z,11.05
2023-04-30T03:09:55.053Z,11.13
2023-04-30T03:12:23.417Z,11.22
2023-04-30T03:14:52.376Z,11.04
2023-04-30T03:17:20.597Z,11.13
2023-04-30T03:19:48.817Z,10.98
2023-04-30T03:22:19.536Z,11.03
2023-04-30T03:24:47.864Z,11.08
2023-04-30T03:27:18.088Z,11.10
2023-04-30T03:29:46.278Z,11.03
2023-04-30T03:32:14.407Z,11.04
2023-04-30T03:34:42.556Z,11.07
2023-04-30T03:37:10.742Z,10.94
2023-04-30T03:39:38.830Z,10.88
2023-04-30T03:42:06.928Z,11.21
2023-04-30T03:44:36.461Z,11.26
2023-04-30T03:47:04.601Z,11.38
2023-04-30T03:49:32.995Z,10.58
2023-04-30T03:52:01.224Z,11.21
2023-04-30T03:54:29.620Z,11.26
2023-04-30T03:56:58.043Z,11.31
2023-04-30T03:59:26.758Z,11.22
2023-04-30T04:01:56.364Z,11.31
2023-04-30T04:04:24.643Z,11.08
2023-04-30T04:06:52.821Z,11.31
2023-04-30T04:09:21.239Z,11.40
2023-04-30T04:11:49.454Z,11.42
2023-04-30T04:14:17.806Z,11.51
2023-04-30T04:16:46.822Z,11.57
2023-04-30T04:19:16.351Z,11.76
2023-04-30T04:21:44.532Z,11.68
2023-04-30T04:24:12.939Z,11.71
2023-04-30T04:26:41.528Z,11.69
2023-04-30T04:29:10.074Z,11.60
2023-04-30T04:31:38.790Z,11.04
2023-04-30T04:34:07.130Z,11.61
2023-04-30T04:36:36.750Z,11.69
2023-04-30T04:39:05.233Z,11.25
2023-04-30T04:41:35.247Z,11.82
2023-04-30T04:44:03.863Z,11.88
2023-04-30T04:46:33.213Z,11.69
2023-04-30T04:49:01.619Z,12.07
2023-04-30T04:51:29.793Z,12.25
2023-04-30T04:53:59.423Z,12.24
2023-04-30T04:56:27.598Z,12.08
2023-04-30T04:58:55.766Z,12.07
2023-04-30T05:01:23.937Z,12.09
2023-04-30T05:03:53.902Z,12.18
2023-04-30T05:06:22.308Z,12.27
2023-04-30T05:08:50.494Z,12.31
2023-04-30T05:11:20.143Z,12.32
2023-04-30T05:16:17.436Z,12.39
2023-04-30T05:18:45.770Z,12.22
2023-04-30T05:21:13.980Z,12.37
2023-04-30T05:23:42.298Z,12.49
2023-04-30T05:26:10.521Z,12.36
2023-04-30T05:28:40.589Z,12.56
2023-04-30T05:31:08.870Z,12.60
2023-04-30T05:33:38.036Z,12.69
2023-04-30T05:36:06.931Z,12.77
2023-04-30T05:38:35.280Z,12.94
2023-04-30T05:41:03.689Z,13.06
2023-04-30T05:43:31.898Z,13.06
2023-04-30T05:46:01.561Z,12.85
2023-04-30T05:48:29.754Z,12.94
2023-04-30T05:50:57.994Z,13.23
2023-04-30T05:53:26.311Z,13.55
2023-04-30T05:55:54.577Z,13.69
2023-04-30T05:58:22.759Z,13.91
2023-04-30T06:00:52.121Z,14.03
2023-04-30T06:03:22.120Z,14.21
2023-04-30T06:05:50.296Z,14.26
2023-04-30T06:08:18.653Z,14.26
2023-04-30T06:10:46.972Z,14.20
2023-04-30T06:13:15.617Z,14.48
2023-04-30T06:15:43.889Z,14.53
2023-04-30T06:18:14.474Z,14.64
2023-04-30T06:20:44.106Z,14.50
2023-04-30T06:23:12.305Z,14.90
2023-04-30T06:25:40.846Z,14.86
2023-04-30T06:28:10.146Z,14.71
2023-04-30T06:30:38.651Z,14.77
2023-04-30T06:33:06.894Z,14.97
2023-04-30T06:35:35.591Z,14.96
2023-04-30T06:38:05.389Z,15.07
2023-04-30T06:40:33.722Z,14.91
2023-04-30T06:43:01.898Z,15.11
2023-04-30T06:45:30.150Z,14.99
2023-04-30T06:47:59.699Z,15.02
2023-04-30T06:50:27.940Z,14.87
2023-04-30T06:52:56.166Z,14.75
2023-04-30T06:55:26.587Z,14.88
2023-04-30T06:57:55.030Z,14.74
2023-04-30T07:00:23.334Z,14.75
2023-04-30T07:02:52.238Z,14.62
2023-04-30T07:05:20.674Z,15.26
2023-04-30T07:07:49.371Z,15.51
2023-04-30T07:10:18.168Z,15.63
2023-04-30T07:12:47.802Z,15.80
2023-04-30T07:15:16.168Z,15.81
2023-04-30T07:17:44.459Z,15.79
2023-04-30T07:20:14.866Z,15.83
2023-04-30T07:22:44.650Z,15.77
2023-04-30T07:25:12.974Z,15.52
2023-04-30T07:27:41.469Z,16.01
2023-04-30T07:30:11.472Z,16.35
2023-04-30T07:32:41.328Z,16.31
2023-04-30T07:35:10.318Z,16.54
2023-04-30T07:37:40.474Z,16.03
2023-04-30T07:40:15.206Z,15.04
2023-04-30T07:42:46.349Z,16.78
2023-04-30T07:45:16.006Z,17.11
2023-04-30T07:47:44.641Z,17.55
2023-04-30T07:50:15.067Z,17.64
2023-04-30T07:58:02.569Z,13.97
2023-04-30T08:03:07.581Z,15.87
2023-04-30T08:05:35.897Z,17.12
2023-04-30T08:08:04.117Z,16.63
2023-04-30T08:10:32.643Z,16.06
2023-04-30T08:13:00.939Z,16.61
2023-04-30T08:15:29.552Z,16.42
2023-04-30T08:17:58.849Z,16.12
2023-04-30T08:20:28.628Z,15.96
2023-04-30T08:22:56.851Z,15.87
2023-04-30T08:25:25.169Z,15.34
2023-04-30T08:27:53.378Z,15.99
2023-04-30T08:30:21.637Z,15.87
2023-04-30T08:32:51.106Z,15.72
2023-04-30T08:35:19.696Z,15.82
2023-04-30T08:37:49.502Z,15.82
2023-04-30T08:40:17.871Z,15.75
2023-04-30T08:42:51.646Z,15.63
2023-04-30T08:45:20.655Z,15.43
2023-04-30T08:47:50.761Z,15.54
2023-04-30T08:50:19.528Z,15.49
2023-04-30T08:52:50.060Z,15.46
2023-04-30T08:55:18.308Z,15.89
2023-04-30T08:57:46.676Z,16.04
2023-04-30T09:00:15.771Z,16.11
2023-04-30T09:02:44.926Z,16.07
2023-04-30T09:05:14.347Z,16.17
2023-04-30T09:07:51.975Z,16.29
2023-04-30T09:10:34.112Z,16.46
2023-04-30T09:13:03.887Z,16.79
2023-04-30T09:15:33.160Z,16.70
2023-04-30T09:18:10.181Z,16.76
2023-04-30T09:20:38.772Z,16.85
2023-04-30T09:23:08.867Z,17.04
2023-04-30T09:25:42.693Z,16.92
2023-04-30T09:28:12.049Z,16.81
2023-04-30T09:30:40.961Z,16.19
2023-04-30T09:33:11.994Z,16.62
2023-04-30T09:35:42.186Z,17.03
2023-04-30T09:38:27.399Z,16.71
2023-04-30T09:40:59.441Z,16.52
2023-04-30T09:43:27.928Z,16.81
2023-04-30T09:45:56.105Z,16.79
2023-04-30T09:48:25.728Z,16.58
2023-04-30T09:50:54.132Z,16.32
2023-04-30T09:53:23.889Z,16.42
2023-04-30T09:55:53.351Z,16.39
2023-04-30T09:58:24.554Z,16.27
2023-04-30T10:00:55.230Z,15.67
2023-04-30T10:03:25.163Z,16.17
2023-04-30T10:05:54.281Z,15.75
2023-04-30T10:08:28.538Z,16.18
2023-04-30T10:11:00.619Z,16.12
2023-04-30T10:13:33.599Z,16.17
2023-04-30T10:16:08.938Z,16.20
2023-04-30T10:18:40.995Z,16.23
2023-04-30T10:21:14.339Z,16.61
2023-04-30T10:23:43.916Z,16.90
2023-04-30T10:26:12.539Z,17.16
2023-04-30T10:28:43.395Z,17.50
2023-04-30T10:31:12.434Z,16.93
2023-04-30T10:33:50.044Z,17.18
2023-04-30T10:36:27.271Z,17.35
2023-04-30T10:38:56.519Z,17.29
2023-04-30T10:41:25.686Z,17.42
2023-04-30T10:43:59.486Z,17.33
2023-04-30T10:46:30.232Z,17.36
2023-04-30T10:49:00.320Z,17.24
2023-04-30T10:51:46.649Z,17.50
2023-04-30T10:54:18.909Z,17.66
2023-04-30T10:56:48.733Z,17.73
2023-04-30T10:59:18.363Z,17.76
2023-04-30T11:02:02.805Z,17.90
2023-04-30T11:04:31.474Z,18.08
2023-04-30T11:07:17.240Z,18.40
2023-04-30T11:09:46.494Z,18.45
2023-04-30T11:12:16.490Z,18.30
2023-04-30T11:14:47.260Z,18.20
2023-04-30T11:17:23.793Z,18.10
2023-04-30T11:19:53.655Z,17.85
2023-04-30T11:22:24.657Z,17.95
2023-04-30T11:25:04.026Z,17.94
2023-04-30T11:27:33.520Z,17.78
2023-04-30T11:30:04.975Z,17.75
2023-04-30T11:32:37.491Z,17.67
2023-04-30T11:35:07.459Z,17.60
2023-04-30T11:37:37.768Z,16.90
2023-04-30T11:40:08.850Z,17.36
2023-04-30T11:42:37.150Z,17.29
2023-04-30T11:45:09.096Z,17.24
2023-04-30T11:47:44.283Z,17.34
2023-04-30T11:50:14.335Z,17.33
2023-04-30T11:52:43.596Z,17.50
2023-04-30T11:55:16.703Z,17.31
2023-04-30T11:57:46.697Z,17.50
2023-04-30T12:00:18.122Z,17.71
2023-04-30T12:02:48.206Z,17.89
2023-04-30T12:05:18.163Z,17.78
2023-04-30T12:07:48.353Z,18.28
2023-04-30T12:10:16.852Z,18.51
2023-04-30T12:12:46.230Z,19.06
2023-04-30T12:15:23.416Z,18.59
2023-04-30T12:17:52.133Z,16.24
2023-04-30T12:22:54.366Z,15.81
2023-04-30T12:28:04.475Z,16.12
2023-04-30T12:30:34.345Z,18.41
2023-04-30T12:33:03.868Z,18.21
2023-04-30T12:35:32.931Z,18.02
2023-04-30T12:46:29.795Z,18.03
2023-04-30T13:02:25.588Z,19.26
2023-04-30T13:04:54.513Z,20.42
2023-04-30T13:07:23.263Z,20.59
2023-04-30T13:09:51.508Z,20.11
2023-04-30T13:12:20.249Z,20.53
2023-04-30T13:14:48.459Z,20.46
2023-04-30T13:19:59.525Z,20.25
2023-04-30T13:39:58.069Z,20.53
2023-04-30T14:01:29.251Z,21.57
2023-04-30T14:03:57.487Z,21.74
2023-04-30T14:06:25.748Z,21.81
2023-04-30T14:08:54.063Z,21.58
2023-04-30T14:11:23.502Z,21.41
2023-04-30T14:13:51.667Z,21.24
2023-04-30T14:16:21.097Z,21.70
2023-04-30T14:18:50.825Z,22.19
2023-04-30T14:21:19.155Z,22.45
2023-04-30T14:23:47.711Z,22.62
2023-04-30T14:26:16.517Z,23.08
2023-04-30T14:28:44.751Z,23.61
2023-04-30T14:31:13.027Z,24.06
2023-04-30T14:33:41.331Z,24.41
2023-04-30T14:36:11.261Z,24.66
2023-04-30T14:38:39.470Z,24.79
2023-04-30T14:41:07.723Z,25.45
2023-04-30T14:43:35.920Z,25.34
2023-04-30T14:46:04.248Z,25.12
2023-04-30T14:48:32.876Z,25.02
2023-04-30T14:51:01.403Z,25.19
2023-04-30T14:53:31.141Z,25.74
2023-04-30T14:55:59.359Z,26.36
2023-04-30T14:58:27.735Z,26.49
2023-04-30T15:00:56.210Z,26.15
2023-04-30T15:03:24.628Z,26.02
2023-04-30T15:05:52.966Z,25.53
2023-04-30T15:08:21.144Z,25.15
2023-04-30T15:10:50.851Z,25.22
2023-04-30T15:13:19.136Z,25.33
2023-04-30T15:15:49.854Z,24.89
2023-04-30T15:18:18.200Z,25.34
2023-04-30T15:20:47.250Z,26.54
2023-04-30T15:23:15.705Z,26.96
2023-04-30T15:25:44.332Z,27.04
2023-04-30T15:28:14.079Z,26.96
2023-04-30T15:30:43.091Z,26.19
2023-04-30T15:33:12.618Z,26.06
2023-04-30T15:35:41.769Z,25.15
2023-04-30T15:38:10.084Z,24.49
2023-04-30T15:40:38.605Z,23.73
2023-04-30T15:43:07.938Z,24.41
2023-04-30T15:45:37.577Z,23.82
2023-04-30T15:48:06.344Z,25.44
2023-04-30T15:50:34.650Z,27.36
2023-04-30T15:53:03.039Z,27.75
2023-04-30T15:55:31.379Z,28.63
2023-04-30T15:57:59.642Z,28.90
2023-04-30T16:00:28.880Z,27.99
2023-04-30T16:02:58.641Z,28.14
2023-04-30T16:05:27.069Z,28.56
2023-04-30T16:07:55.730Z,27.18
2023-04-30T16:10:24.014Z,25.85
2023-04-30T16:12:52.551Z,24.82
2023-04-30T16:15:20.785Z,23.91
2023-04-30T16:17:49.095Z,22.90
2023-04-30T16:20:19.227Z,22.30
2023-04-30T16:22:48.298Z,21.93
2023-04-30T16:25:16.702Z,21.52
2023-04-30T16:27:45.477Z,21.11
2023-04-30T16:30:14.136Z,20.86
2023-04-30T16:32:42.525Z,20.53
2023-04-30T16:35:11.368Z,20.37
2023-04-30T16:37:40.999Z,20.16
2023-04-30T16:40:10.060Z,20.12
2023-04-30T16:42:38.266Z,20.24
2023-04-30T16:45:07.357Z,20.15
2023-04-30T16:47:35.595Z,20.00
2023-04-30T16:50:03.926Z,19.84
2023-04-30T16:52:33.273Z,19.37
2023-04-30T16:55:03.507Z,19.47
2023-04-30T16:57:31.956Z,18.97
2023-04-30T17:00:00.258Z,19.18
2023-04-30T17:02:28.548Z,19.08
2023-04-30T17:04:57.759Z,18.72
2023-04-30T17:07:25.886Z,18.79
2023-04-30T17:09:54.659Z,18.63
2023-04-30T17:12:24.895Z,18.61
2023-04-30T17:14:53.348Z,18.56
2023-04-30T17:17:21.474Z,18.50
2023-04-30T17:19:49.572Z,18.33
2023-04-30T17:22:20.224Z,18.23
2023-04-30T17:24:48.597Z,18.14
2023-04-30T17:27:16.973Z,18.01
2023-04-30T17:29:46.615Z,17.96
2023-04-30T17:32:17.667Z,17.94
2023-04-30T17:34:45.947Z,17.36
2023-04-30T17:37:14.102Z,17.36
2023-04-30T17:39:42.255Z,17.11
2023-04-30T17:42:10.528Z,17.46
2023-04-30T17:44:38.800Z,17.47
2023-04-30T17:47:08.394Z,17.43
2023-04-30T17:49:36.738Z,17.10
2023-04-30T17:52:06.410Z,17.19
2023-04-30T17:54:34.921Z,17.17
2023-04-30T17:57:03.499Z,17.19
2023-04-30T17:59:32.127Z,16.90
2023-04-30T18:02:00.445Z,17.05
2023-04-30T18:04:30.352Z,17.01
2023-04-30T18:06:58.573Z,16.93
2023-04-30T18:09:26.991Z,16.90
2023-04-30T18:11:56.359Z,16.77
2023-04-30T18:14:26.239Z,16.66
2023-04-30T18:16:54.847Z,16.31
2023-04-30T18:19:23.166Z,16.18
2023-04-30T18:21:53.271Z,16.47
2023-04-30T18:27:12.334Z,13.38
2023-04-30T18:29:41.993Z,15.44
2023-04-30T18:32:10.384Z,16.67
2023-04-30T18:34:38.946Z,16.59
2023-04-30T18:37:08.618Z,16.04
2023-04-30T18:39:36.893Z,16.30
2023-04-30T18:42:05.233Z,16.36
2023-04-30T18:44:33.577Z,16.24
2023-04-30T18:47:01.863Z,16.32
2023-04-30T18:49:30.173Z,16.30
2023-04-30T18:51:59.632Z,16.28
2023-04-30T18:54:29.402Z,16.23
2023-04-30T18:56:57.666Z,16.17
2023-04-30T18:59:27.695Z,16.12
2023-04-30T19:01:56.077Z,15.85
2023-04-30T19:04:24.424Z,15.52
2023-04-30T19:06:54.595Z,15.70
2023-04-30T19:09:22.964Z,15.42
2023-04-30T19:11:53.286Z,15.32
2023-04-30T19:14:21.582Z,15.37
2023-04-30T19:16:49.963Z,14.93
2023-04-30T19:19:18.262Z,14.91
2023-04-30T19:21:46.675Z,15.04
2023-04-30T19:24:15.087Z,15.00
2023-04-30T19:26:43.682Z,15.04
2023-04-30T19:29:13.379Z,14.92
2023-04-30T19:31:41.789Z,14.92
2023-04-30T19:34:10.274Z,14.81
2023-04-30T19:36:38.595Z,14.64
2023-04-30T19:39:10.297Z,14.65
2023-04-30T19:41:38.576Z,14.34
2023-04-30T19:44:08.022Z,14.42
2023-04-30T19:46:37.841Z,14.37
2023-04-30T19:49:08.501Z,14.33
2023-04-30T19:51:36.859Z,14.18
2023-04-30T19:54:05.144Z,14.17
2023-04-30T19:56:33.429Z,14.12
2023-04-30T19:59:01.658Z,14.06
2023-04-30T20:01:29.995Z,13.98
2023-04-30T20:03:59.942Z,13.95
2023-04-30T20:06:28.605Z,13.67
2023-04-30T20:08:59.869Z,13.74
2023-04-30T20:11:28.243Z,13.56
2023-04-30T20:13:56.996Z,13.62
2023-04-30T20:16:25.656Z,13.59
2023-04-30T20:18:53.905Z,13.63
2023-04-30T20:21:25.073Z,13.69
2023-04-30T20:23:53.270Z,13.45
2023-04-30T20:26:21.913Z,13.43
2023-04-30T20:28:50.026Z,13.42
2023-04-30T20:31:18.432Z,13.39
2023-04-30T20:33:47.174Z,13.31
2023-04-30T20:36:15.935Z,13.32
2023-04-30T20:38:45.650Z,13.13
2023-04-30T20:41:13.919Z,13.20
2023-04-30T20:43:42.659Z,13.16
2023-04-30T20:46:13.955Z,13.23
2023-04-30T20:48:42.093Z,13.15
2023-04-30T20:51:10.917Z,12.73
2023-04-30T20:53:39.215Z,12.84
2023-04-30T20:56:08.957Z,13.02
2023-04-30T20:58:37.209Z,12.89
2023-04-30T21:01:05.494Z,12.80
2023-04-30T21:03:33.824Z,12.88
2023-04-30T21:06:02.286Z,12.85
2023-04-30T21:08:30.672Z,12.90
2023-04-30T21:10:58.983Z,12.91
2023-04-30T21:13:28.791Z,11.68
2023-04-30T21:15:57.840Z,12.79
2023-04-30T21:18:27.749Z,12.66
2023-04-30T21:21:02.727Z,12.55
2023-04-30T21:23:31.141Z,12.45
2023-04-30T21:25:59.363Z,12.40
2023-04-30T21:28:29.054Z,12.61
2023-04-30T21:30:57.313Z,12.41
2023-04-30T21:33:25.519Z,12.45
2023-04-30T21:35:53.680Z,11.93
2023-04-30T21:38:21.797Z,12.32
2023-04-30T21:40:50.117Z,12.17
2023-04-30T21:43:18.808Z,12.00
2023-04-30T21:45:48.396Z,12.20
2023-04-30T21:48:17.373Z,12.07
2023-04-30T21:50:46.856Z,12.02
2023-04-30T21:53:16.119Z,11.99
2023-04-30T21:55:44.345Z,12.01
2023-04-30T21:58:13.357Z,12.05
2023-04-30T22:00:41.653Z,11.88
2023-04-30T22:03:11.573Z,11.47
2023-04-30T22:05:40.011Z,12.05
2023-04-30T22:08:08.157Z,12.02
2023-04-30T22:10:36.511Z,11.80
2023-04-30T22:13:04.696Z,11.96
2023-04-30T22:15:47.071Z,11.84
2023-04-30T22:18:18.009Z,11.75
2023-04-30T22:20:46.259Z,11.60
2023-04-30T22:23:14.366Z,11.64
2023-04-30T22:25:42.950Z,11.48
2023-04-30T22:28:11.671Z,11.48
2023-04-30T22:30:40.261Z,11.31
2023-04-30T22:33:08.551Z,11.65
2023-04-30T22:35:39.306Z,11.68
2023-04-30T22:38:08.305Z,9.88
2023-04-30T22:40:47.244Z,11.63
2023-04-30T22:43:16.767Z,11.59
2023-04-30T22:45:47.886Z,11.48
2023-04-30T22:48:19.613Z,11.41
2023-04-30T22:50:50.801Z,11.08
2023-04-30T22:53:19.760Z,11.40
2023-04-30T22:55:49.186Z,10.79
2023-04-30T22:58:18.280Z,11.24
2023-04-30T23:00:51.449Z,11.17
2023-04-30T23:03:20.231Z,10.63
2023-04-30T23:05:55.689Z,10.82
2023-04-30T23:08:26.652Z,11.03
2023-04-30T23:10:56.056Z,10.96
2023-04-30T23:13:27.620Z,11.15
2023-04-30T23:15:58.928Z,11.11
2023-04-30T23:18:27.227Z,11.13
2023-04-30T23:20:59.051Z,10.96
2023-04-30T23:23:27.977Z,10.78
2023-04-30T23:25:56.719Z,10.60
2023-04-30T23:28:25.591Z,10.57
2023-04-30T23:30:54.616Z,10.57
2023-04-30T23:33:23.442Z,10.50
2023-04-30T23:35:53.549Z,10.60
2023-04-30T23:38:23.532Z,10.61
2023-04-30T23:40:51.713Z,10.60
2023-04-30T23:43:19.949Z,10.59
2023-04-30T23:45:48.141Z,10.56
2023-04-30T23:48:16.352Z,10.51
2023-04-30T23:50:44.586Z,10.30
2023-04-30T23:53:12.782Z,10.36
2023-04-30T23:55:43.768Z,10.21
2023-04-30T23:58:11.901Z,10.24
